sensor_id;sensor_type;location;lat;lon;timestamp;P1;durP1;ratioP1;P2;durP2;ratioP2
65799;SDS011;52544;48.116;11.660;2022-07-29T00:00:22;2.17;;;1.60;;
65799;SDS011;52544;48.116;11.660;2022-07-29T00:02:48;2.28;;;1.50;;
65799;SDS011;52544;48.116;11.660;2022-07-29T00:05:13;2.95;;;1.60;;
65799;SDS011;52544;48.116;11.660;2022-07-29T00:07:39;1.75;;;1.33;;
65799;SDS011;52544;48.116;11.660;2022-07-29T00:10:06;1.60;;;1.40;;
65799;SDS011;52544;48.116;11.660;2022-07-29T00:12:31;1.85;;;1.27;;
65799;SDS011;52544;48.116;11.660;2022-07-29T00:14:57;1.50;;;1.20;;
65799;SDS011;52544;48.116;11.660;2022-07-29T00:17:25;1.60;;;1.30;;
65799;SDS011;52544;48.116;11.660;2022-07-29T00:19:51;1.92;;;1.48;;
65799;SDS011;52544;48.116;11.660;2022-07-29T00:22:16;3.75;;;1.30;;
65799;SDS011;52544;48.116;11.660;2022-07-29T00:24:42;2.95;;;1.40;;
65799;SDS011;52544;48.116;11.660;2022-07-29T00:27:07;2.25;;;1.30;;
65799;SDS011;52544;48.116;11.660;2022-07-29T00:29:33;1.45;;;1.05;;
65799;SDS011;52544;48.116;11.660;2022-07-29T00:31:58;1.83;;;1.40;;
65799;SDS011;52544;48.116;11.660;2022-07-29T00:34:24;3.22;;;1.50;;
65799;SDS011;52544;48.116;11.660;2022-07-29T00:37:08;2.88;;;1.50;;
65799;SDS011;52544;48.116;11.660;2022-07-29T00:39:33;2.10;;;1.55;;
65799;SDS011;52544;48.116;11.660;2022-07-29T00:41:58;2.00;;;1.40;;
65799;SDS011;52544;48.116;11.660;2022-07-29T00:44:27;2.10;;;1.63;;
65799;SDS011;52544;48.116;11.660;2022-07-29T00:46:53;1.70;;;1.40;;
65799;SDS011;52544;48.116;11.660;2022-07-29T00:49:18;2.00;;;1.48;;
65799;SDS011;52544;48.116;11.660;2022-07-29T00:51:44;1.90;;;1.40;;
65799;SDS011;52544;48.116;11.660;2022-07-29T00:54:09;4.13;;;1.60;;
65799;SDS011;52544;48.116;11.660;2022-07-29T00:56:35;1.90;;;1.60;;
65799;SDS011;52544;48.116;11.660;2022-07-29T00:59:00;2.38;;;1.55;;
65799;SDS011;52544;48.116;11.660;2022-07-29T01:01:26;2.17;;;1.50;;
65799;SDS011;52544;48.116;11.660;2022-07-29T01:03:52;5.45;;;1.75;;
65799;SDS011;52544;48.116;11.660;2022-07-29T01:06:18;1.70;;;1.60;;
65799;SDS011;52544;48.116;11.660;2022-07-29T01:08:44;2.10;;;1.70;;
65799;SDS011;52544;48.116;11.660;2022-07-29T01:11:12;2.97;;;1.60;;
65799;SDS011;52544;48.116;11.660;2022-07-29T01:13:38;1.90;;;1.45;;
65799;SDS011;52544;48.116;11.660;2022-07-29T01:16:08;2.20;;;1.60;;
65799;SDS011;52544;48.116;11.660;2022-07-29T01:18:44;2.83;;;1.60;;
65799;SDS011;52544;48.116;11.660;2022-07-29T01:28:58;1.88;;;1.40;;
65799;SDS011;52544;48.116;11.660;2022-07-29T01:31:35;1.83;;;1.60;;
65799;SDS011;52544;48.116;11.660;2022-07-29T01:34:35;1.40;;;1.30;;
65799;SDS011;52544;48.116;11.660;2022-07-29T01:37:20;3.50;;;1.60;;
65799;SDS011;52544;48.116;11.660;2022-07-29T01:39:49;1.27;;;1.17;;
65799;SDS011;52544;48.116;11.660;2022-07-29T01:50:46;2.83;;;1.30;;
65799;SDS011;52544;48.116;11.660;2022-07-29T01:53:17;2.17;;;1.42;;
65799;SDS011;52544;48.116;11.660;2022-07-29T01:55:50;1.30;;;1.20;;
65799;SDS011;52544;48.116;11.660;2022-07-29T01:58:18;2.53;;;1.20;;
65799;SDS011;52544;48.116;11.660;2022-07-29T02:00:45;1.85;;;1.33;;
65799;SDS011;52544;48.116;11.660;2022-07-29T02:03:13;1.65;;;1.30;;
65799;SDS011;52544;48.116;11.660;2022-07-29T02:05:42;1.35;;;1.23;;
65799;SDS011;52544;48.116;11.660;2022-07-29T02:08:10;1.42;;;1.30;;
65799;SDS011;52544;48.116;11.660;2022-07-29T02:10:37;1.45;;;1.20;;
65799;SDS011;52544;48.116;11.660;2022-07-29T02:13:05;2.63;;;1.38;;
65799;SDS011;52544;48.116;11.660;2022-07-29T02:15:32;1.30;;;1.20;;
65799;SDS011;52544;48.116;11.660;2022-07-29T02:18:06;1.20;;;1.10;;
65799;SDS011;52544;48.116;11.660;2022-07-29T02:20:34;1.48;;;1.30;;
65799;SDS011;52544;48.116;11.660;2022-07-29T02:23:02;1.40;;;1.30;;
65799;SDS011;52544;48.116;11.660;2022-07-29T02:25:29;1.92;;;1.30;;
65799;SDS011;52544;48.116;11.660;2022-07-29T02:27:55;1.40;;;1.30;;
65799;SDS011;52544;48.116;11.660;2022-07-29T02:30:24;1.73;;;1.40;;
65799;SDS011;52544;48.116;11.660;2022-07-29T02:32:50;1.77;;;1.13;;
65799;SDS011;52544;48.116;11.660;2022-07-29T02:35:17;2.35;;;1.35;;
65799;SDS011;52544;48.116;11.660;2022-07-29T02:37:44;1.90;;;1.42;;
65799;SDS011;52544;48.116;11.660;2022-07-29T02:40:31;1.88;;;1.33;;
65799;SDS011;52544;48.116;11.660;2022-07-29T02:42:59;1.90;;;1.50;;
65799;SDS011;52544;48.116;11.660;2022-07-29T02:45:26;4.10;;;1.70;;
65799;SDS011;52544;48.116;11.660;2022-07-29T02:47:53;1.65;;;1.55;;
65799;SDS011;52544;48.116;11.660;2022-07-29T02:50:28;1.60;;;1.30;;
65799;SDS011;52544;48.116;11.660;2022-07-29T02:53:00;1.85;;;1.50;;
65799;SDS011;52544;48.116;11.660;2022-07-29T02:55:34;1.60;;;1.50;;
65799;SDS011;52544;48.116;11.660;2022-07-29T03:01:15;2.05;;;1.42;;
65799;SDS011;52544;48.116;11.660;2022-07-29T03:03:48;1.70;;;1.40;;
65799;SDS011;52544;48.116;11.660;2022-07-29T03:06:17;1.80;;;1.27;;
65799;SDS011;52544;48.116;11.660;2022-07-29T03:08:44;2.13;;;1.60;;
65799;SDS011;52544;48.116;11.660;2022-07-29T03:11:11;2.30;;;1.60;;
65799;SDS011;52544;48.116;11.660;2022-07-29T03:13:37;3.33;;;1.60;;
65799;SDS011;52544;48.116;11.660;2022-07-29T03:16:04;2.47;;;1.50;;
65799;SDS011;52544;48.116;11.660;2022-07-29T03:18:31;1.40;;;1.30;;
65799;SDS011;52544;48.116;11.660;2022-07-29T03:20:57;2.05;;;1.63;;
65799;SDS011;52544;48.116;11.660;2022-07-29T03:23:22;1.70;;;1.40;;
65799;SDS011;52544;48.116;11.660;2022-07-29T03:25:49;1.40;;;1.30;;
65799;SDS011;52544;48.116;11.660;2022-07-29T03:28:15;2.30;;;1.45;;
65799;SDS011;52544;48.116;11.660;2022-07-29T03:30:40;2.17;;;1.67;;
65799;SDS011;52544;48.116;11.660;2022-07-29T03:33:06;2.40;;;1.63;;
65799;SDS011;52544;48.116;11.660;2022-07-29T03:35:31;2.00;;;1.27;;
65799;SDS011;52544;48.116;11.660;2022-07-29T03:37:57;1.88;;;1.38;;
65799;SDS011;52544;48.116;11.660;2022-07-29T03:40:25;3.25;;;1.60;;
65799;SDS011;52544;48.116;11.660;2022-07-29T03:43:00;1.40;;;1.30;;
65799;SDS011;52544;48.116;11.660;2022-07-29T03:45:27;2.67;;;1.52;;
65799;SDS011;52544;48.116;11.660;2022-07-29T03:47:56;1.50;;;1.40;;
65799;SDS011;52544;48.116;11.660;2022-07-29T03:50:26;2.33;;;1.58;;
65799;SDS011;52544;48.116;11.660;2022-07-29T03:52:53;3.63;;;1.42;;
65799;SDS011;52544;48.116;11.660;2022-07-29T03:55:19;2.13;;;1.58;;
65799;SDS011;52544;48.116;11.660;2022-07-29T03:57:44;3.42;;;1.40;;
65799;SDS011;52544;48.116;11.660;2022-07-29T04:00:11;2.10;;;1.60;;
65799;SDS011;52544;48.116;11.660;2022-07-29T04:02:38;2.90;;;1.45;;
65799;SDS011;52544;48.116;11.660;2022-07-29T04:05:05;2.67;;;1.50;;
65799;SDS011;52544;48.116;11.660;2022-07-29T04:07:36;2.13;;;1.67;;
65799;SDS011;52544;48.116;11.660;2022-07-29T04:10:01;3.25;;;2.05;;
65799;SDS011;52544;48.116;11.660;2022-07-29T04:12:27;2.70;;;1.60;;
65799;SDS011;52544;48.116;11.660;2022-07-29T04:14:52;2.15;;;1.60;;
65799;SDS011;52544;48.116;11.660;2022-07-29T04:17:18;2.65;;;1.88;;
65799;SDS011;52544;48.116;11.660;2022-07-29T04:19:43;2.28;;;1.90;;
65799;SDS011;52544;48.116;11.660;2022-07-29T04:22:08;2.67;;;1.75;;
65799;SDS011;52544;48.116;11.660;2022-07-29T04:24:34;2.28;;;1.70;;
65799;SDS011;52544;48.116;11.660;2022-07-29T04:26:59;2.88;;;1.73;;
65799;SDS011;52544;48.116;11.660;2022-07-29T04:29:25;3.22;;;1.90;;
65799;SDS011;52544;48.116;11.660;2022-07-29T04:31:50;3.67;;;2.10;;
65799;SDS011;52544;48.116;11.660;2022-07-29T04:34:15;2.33;;;1.80;;
65799;SDS011;52544;48.116;11.660;2022-07-29T04:36:41;2.58;;;1.75;;
65799;SDS011;52544;48.116;11.660;2022-07-29T04:39:06;2.30;;;1.70;;
65799;SDS011;52544;48.116;11.660;2022-07-29T04:41:32;3.17;;;2.10;;
65799;SDS011;52544;48.116;11.660;2022-07-29T04:43:57;3.05;;;2.30;;
65799;SDS011;52544;48.116;11.660;2022-07-29T04:46:22;5.32;;;2.10;;
65799;SDS011;52544;48.116;11.660;2022-07-29T04:48:48;2.35;;;1.98;;
65799;SDS011;52544;48.116;11.660;2022-07-29T04:51:14;3.45;;;2.20;;
65799;SDS011;52544;48.116;11.660;2022-07-29T04:53:40;2.65;;;1.77;;
65799;SDS011;52544;48.116;11.660;2022-07-29T04:56:05;2.78;;;1.80;;
65799;SDS011;52544;48.116;11.660;2022-07-29T04:58:31;7.00;;;1.95;;
65799;SDS011;52544;48.116;11.660;2022-07-29T05:00:58;1.90;;;1.70;;
65799;SDS011;52544;48.116;11.660;2022-07-29T05:03:24;3.08;;;2.00;;
65799;SDS011;52544;48.116;11.660;2022-07-29T05:05:49;3.97;;;1.75;;
65799;SDS011;52544;48.116;11.660;2022-07-29T05:08:15;2.40;;;1.95;;
65799;SDS011;52544;48.116;11.660;2022-07-29T05:10:40;2.80;;;1.95;;
65799;SDS011;52544;48.116;11.660;2022-07-29T05:13:05;4.25;;;1.90;;
65799;SDS011;52544;48.116;11.660;2022-07-29T05:15:32;3.33;;;1.95;;
65799;SDS011;52544;48.116;11.660;2022-07-29T05:18:00;5.70;;;2.10;;
65799;SDS011;52544;48.116;11.660;2022-07-29T05:20:26;3.08;;;2.20;;
65799;SDS011;52544;48.116;11.660;2022-07-29T05:22:57;3.05;;;1.85;;
65799;SDS011;52544;48.116;11.660;2022-07-29T05:25:24;2.95;;;1.92;;
65799;SDS011;52544;48.116;11.660;2022-07-29T05:27:50;3.55;;;2.05;;
65799;SDS011;52544;48.116;11.660;2022-07-29T05:30:17;4.55;;;1.90;;
65799;SDS011;52544;48.116;11.660;2022-07-29T05:32:43;2.67;;;2.03;;
65799;SDS011;52544;48.116;11.660;2022-07-29T05:35:09;2.28;;;2.00;;
65799;SDS011;52544;48.116;11.660;2022-07-29T05:37:35;3.92;;;1.92;;
65799;SDS011;52544;48.116;11.660;2022-07-29T05:40:00;3.50;;;1.80;;
65799;SDS011;52544;48.116;11.660;2022-07-29T05:42:27;2.53;;;2.20;;
65799;SDS011;52544;48.116;11.660;2022-07-29T05:44:52;5.57;;;1.95;;
65799;SDS011;52544;48.116;11.660;2022-07-29T05:47:18;2.58;;;1.70;;
65799;SDS011;52544;48.116;11.660;2022-07-29T05:49:43;2.42;;;2.10;;
65799;SDS011;52544;48.116;11.660;2022-07-29T05:52:09;2.75;;;2.08;;
65799;SDS011;52544;48.116;11.660;2022-07-29T05:54:34;5.65;;;2.13;;
65799;SDS011;52544;48.116;11.660;2022-07-29T05:57:00;2.60;;;2.05;;
65799;SDS011;52544;48.116;11.660;2022-07-29T05:59:26;3.53;;;2.13;;
65799;SDS011;52544;48.116;11.660;2022-07-29T06:01:51;2.60;;;1.83;;
65799;SDS011;52544;48.116;11.660;2022-07-29T06:04:17;2.17;;;1.77;;
65799;SDS011;52544;48.116;11.660;2022-07-29T06:06:42;2.90;;;2.05;;
65799;SDS011;52544;48.116;11.660;2022-07-29T06:09:07;3.08;;;2.17;;
65799;SDS011;52544;48.116;11.660;2022-07-29T06:11:33;3.75;;;2.17;;
65799;SDS011;52544;48.116;11.660;2022-07-29T06:13:58;3.53;;;2.15;;
65799;SDS011;52544;48.116;11.660;2022-07-29T06:16:24;4.82;;;2.00;;
65799;SDS011;52544;48.116;11.660;2022-07-29T06:18:49;3.83;;;2.28;;
65799;SDS011;52544;48.116;11.660;2022-07-29T06:21:15;4.20;;;2.28;;
65799;SDS011;52544;48.116;11.660;2022-07-29T06:23:40;3.92;;;2.10;;
65799;SDS011;52544;48.116;11.660;2022-07-29T06:26:06;3.42;;;2.00;;
65799;SDS011;52544;48.116;11.660;2022-07-29T06:28:32;7.50;;;2.40;;
65799;SDS011;52544;48.116;11.660;2022-07-29T06:30:58;2.67;;;2.20;;
65799;SDS011;52544;48.116;11.660;2022-07-29T06:33:23;3.80;;;2.40;;
65799;SDS011;52544;48.116;11.660;2022-07-29T06:35:49;3.75;;;2.30;;
65799;SDS011;52544;48.116;11.660;2022-07-29T06:38:14;6.78;;;2.10;;
65799;SDS011;52544;48.116;11.660;2022-07-29T06:40:41;5.03;;;2.00;;
65799;SDS011;52544;48.116;11.660;2022-07-29T06:43:37;5.20;;;2.03;;
65799;SDS011;52544;48.116;11.660;2022-07-29T06:46:13;3.33;;;2.17;;
65799;SDS011;52544;48.116;11.660;2022-07-29T06:48:40;2.72;;;1.80;;
65799;SDS011;52544;48.116;11.660;2022-07-29T06:51:07;3.10;;;2.00;;
65799;SDS011;52544;48.116;11.660;2022-07-29T06:53:34;3.67;;;2.03;;
65799;SDS011;52544;48.116;11.660;2022-07-29T06:56:01;3.10;;;2.20;;
65799;SDS011;52544;48.116;11.660;2022-07-29T06:58:27;3.97;;;2.67;;
65799;SDS011;52544;48.116;11.660;2022-07-29T07:00:53;4.70;;;2.25;;
65799;SDS011;52544;48.116;11.660;2022-07-29T07:03:20;2.85;;;2.00;;
65799;SDS011;52544;48.116;11.660;2022-07-29T07:05:45;2.83;;;2.03;;
65799;SDS011;52544;48.116;11.660;2022-07-29T07:08:11;2.70;;;2.10;;
65799;SDS011;52544;48.116;11.660;2022-07-29T07:10:38;2.90;;;2.00;;
65799;SDS011;52544;48.116;11.660;2022-07-29T07:13:04;2.17;;;1.70;;
65799;SDS011;52544;48.116;11.660;2022-07-29T07:15:30;1.92;;;1.63;;
65799;SDS011;52544;48.116;11.660;2022-07-29T07:17:56;3.30;;;1.95;;
65799;SDS011;52544;48.116;11.660;2022-07-29T07:20:22;1.70;;;1.60;;
65799;SDS011;52544;48.116;11.660;2022-07-29T07:22:48;2.13;;;1.63;;
65799;SDS011;52544;48.116;11.660;2022-07-29T07:25:14;2.13;;;1.92;;
65799;SDS011;52544;48.116;11.660;2022-07-29T07:27:39;2.83;;;2.05;;
65799;SDS011;52544;48.116;11.660;2022-07-29T07:30:05;3.38;;;1.92;;
65799;SDS011;52544;48.116;11.660;2022-07-29T07:32:32;4.95;;;1.83;;
65799;SDS011;52544;48.116;11.660;2022-07-29T07:34:58;2.92;;;1.70;;
65799;SDS011;52544;48.116;11.660;2022-07-29T07:37:24;3.10;;;1.80;;
65799;SDS011;52544;48.116;11.660;2022-07-29T07:39:53;2.88;;;1.70;;
65799;SDS011;52544;48.116;11.660;2022-07-29T07:42:19;1.98;;;1.60;;
65799;SDS011;52544;48.116;11.660;2022-07-29T07:44:45;7.00;;;2.00;;
65799;SDS011;52544;48.116;11.660;2022-07-29T07:47:14;2.03;;;1.63;;
65799;SDS011;52544;48.116;11.660;2022-07-29T07:49:44;3.92;;;2.00;;
65799;SDS011;52544;48.116;11.660;2022-07-29T07:52:10;4.40;;;2.30;;
65799;SDS011;52544;48.116;11.660;2022-07-29T07:54:36;2.13;;;1.92;;
65799;SDS011;52544;48.116;11.660;2022-07-29T07:57:01;2.67;;;1.92;;
65799;SDS011;52544;48.116;11.660;2022-07-29T07:59:27;1.98;;;1.70;;
65799;SDS011;52544;48.116;11.660;2022-07-29T08:01:52;4.75;;;1.58;;
65799;SDS011;52544;48.116;11.660;2022-07-29T08:04:18;2.47;;;1.60;;
65799;SDS011;52544;48.116;11.660;2022-07-29T08:06:43;2.53;;;2.03;;
65799;SDS011;52544;48.116;11.660;2022-07-29T08:09:09;2.70;;;1.65;;
65799;SDS011;52544;48.116;11.660;2022-07-29T08:11:34;3.05;;;1.88;;
65799;SDS011;52544;48.116;11.660;2022-07-29T08:13:59;8.38;;;2.30;;
65799;SDS011;52544;48.116;11.660;2022-07-29T08:16:26;3.75;;;2.10;;
65799;SDS011;52544;48.116;11.660;2022-07-29T08:18:52;3.20;;;1.88;;
65799;SDS011;52544;48.116;11.660;2022-07-29T08:21:22;3.20;;;2.30;;
65799;SDS011;52544;48.116;11.660;2022-07-29T08:23:48;2.40;;;1.90;;
65799;SDS011;52544;48.116;11.660;2022-07-29T08:26:14;1.80;;;1.70;;
65799;SDS011;52544;48.116;11.660;2022-07-29T08:28:40;2.45;;;1.60;;
65799;SDS011;52544;48.116;11.660;2022-07-29T08:31:10;3.65;;;1.90;;
65799;SDS011;52544;48.116;11.660;2022-07-29T08:33:37;2.58;;;1.70;;
65799;SDS011;52544;48.116;11.660;2022-07-29T08:36:04;7.50;;;2.42;;
65799;SDS011;52544;48.116;11.660;2022-07-29T08:38:31;3.38;;;1.85;;
65799;SDS011;52544;48.116;11.660;2022-07-29T08:40:56;2.15;;;1.80;;
65799;SDS011;52544;48.116;11.660;2022-07-29T08:43:23;2.35;;;2.15;;
65799;SDS011;52544;48.116;11.660;2022-07-29T08:45:49;2.17;;;1.65;;
65799;SDS011;52544;48.116;11.660;2022-07-29T08:48:17;2.33;;;1.67;;
65799;SDS011;52544;48.116;11.660;2022-07-29T08:50:47;2.47;;;2.17;;
65799;SDS011;52544;48.116;11.660;2022-07-29T08:53:16;2.10;;;1.90;;
65799;SDS011;52544;48.116;11.660;2022-07-29T08:55:43;2.45;;;2.05;;
65799;SDS011;52544;48.116;11.660;2022-07-29T08:58:10;3.15;;;2.30;;
65799;SDS011;52544;48.116;11.660;2022-07-29T09:00:37;3.10;;;2.20;;
65799;SDS011;52544;48.116;11.660;2022-07-29T09:03:06;3.63;;;2.28;;
65799;SDS011;52544;48.116;11.660;2022-07-29T09:05:34;4.28;;;2.50;;
65799;SDS011;52544;48.116;11.660;2022-07-29T09:08:00;3.40;;;2.40;;
65799;SDS011;52544;48.116;11.660;2022-07-29T09:10:26;3.53;;;2.30;;
65799;SDS011;52544;48.116;11.660;2022-07-29T09:12:51;5.05;;;2.50;;
65799;SDS011;52544;48.116;11.660;2022-07-29T09:15:17;3.83;;;2.50;;
65799;SDS011;52544;48.116;11.660;2022-07-29T09:17:44;4.00;;;2.35;;
65799;SDS011;52544;48.116;11.660;2022-07-29T09:20:12;5.38;;;2.67;;
65799;SDS011;52544;48.116;11.660;2022-07-29T09:22:40;2.63;;;2.38;;
65799;SDS011;52544;48.116;11.660;2022-07-29T09:25:05;3.03;;;2.53;;
65799;SDS011;52544;48.116;11.660;2022-07-29T09:27:31;2.55;;;2.35;;
65799;SDS011;52544;48.116;11.660;2022-07-29T09:30:05;3.70;;;2.55;;
65799;SDS011;52544;48.116;11.660;2022-07-29T09:32:56;4.30;;;2.58;;
65799;SDS011;52544;48.116;11.660;2022-07-29T09:35:24;3.13;;;2.70;;
65799;SDS011;52544;48.116;11.660;2022-07-29T09:37:50;5.10;;;2.38;;
65799;SDS011;52544;48.116;11.660;2022-07-29T09:40:17;3.25;;;2.70;;
65799;SDS011;52544;48.116;11.660;2022-07-29T09:42:45;2.60;;;2.40;;
65799;SDS011;52544;48.116;11.660;2022-07-29T09:45:11;3.08;;;2.72;;
65799;SDS011;52544;48.116;11.660;2022-07-29T09:47:41;3.50;;;2.78;;
65799;SDS011;52544;48.116;11.660;2022-07-29T09:50:10;4.70;;;2.60;;
65799;SDS011;52544;48.116;11.660;2022-07-29T09:52:44;3.13;;;2.78;;
65799;SDS011;52544;48.116;11.660;2022-07-29T09:55:11;4.93;;;2.40;;
65799;SDS011;52544;48.116;11.660;2022-07-29T09:57:37;3.67;;;2.97;;
65799;SDS011;52544;48.116;11.660;2022-07-29T10:02:32;5.00;;;3.42;;
65799;SDS011;52544;48.116;11.660;2022-07-29T10:05:00;6.15;;;4.43;;
65799;SDS011;52544;48.116;11.660;2022-07-29T10:10:36;5.50;;;2.80;;
65799;SDS011;52544;48.116;11.660;2022-07-29T10:13:04;4.13;;;2.75;;
65799;SDS011;52544;48.116;11.660;2022-07-29T10:15:33;4.35;;;2.78;;
65799;SDS011;52544;48.116;11.660;2022-07-29T10:18:06;3.65;;;2.88;;
65799;SDS011;52544;48.116;11.660;2022-07-29T10:20:33;4.32;;;2.70;;
65799;SDS011;52544;48.116;11.660;2022-07-29T10:22:59;3.20;;;2.70;;
65799;SDS011;52544;48.116;11.660;2022-07-29T10:25:25;2.72;;;2.42;;
65799;SDS011;52544;48.116;11.660;2022-07-29T10:27:51;4.50;;;2.97;;
65799;SDS011;52544;48.116;11.660;2022-07-29T10:30:18;4.20;;;2.97;;
65799;SDS011;52544;48.116;11.660;2022-07-29T10:32:53;4.32;;;3.08;;
65799;SDS011;52544;48.116;11.660;2022-07-29T10:40:52;5.55;;;3.42;;
65799;SDS011;52544;48.116;11.660;2022-07-29T10:43:46;4.05;;;3.22;;
65799;SDS011;52544;48.116;11.660;2022-07-29T10:46:12;3.53;;;3.20;;
65799;SDS011;52544;48.116;11.660;2022-07-29T10:57:16;4.90;;;3.22;;
65799;SDS011;52544;48.116;11.660;2022-07-29T10:59:48;5.40;;;3.00;;
65799;SDS011;52544;48.116;11.660;2022-07-29T11:07:31;10.82;;;3.10;;
65799;SDS011;52544;48.116;11.660;2022-07-29T11:15:02;5.80;;;3.38;;
65799;SDS011;52544;48.116;11.660;2022-07-29T11:20:31;3.67;;;2.90;;
65799;SDS011;52544;48.116;11.660;2022-07-29T11:28:57;3.92;;;2.85;;
65799;SDS011;52544;48.116;11.660;2022-07-29T11:34:23;4.35;;;3.30;;
65799;SDS011;52544;48.116;11.660;2022-07-29T11:39:31;4.95;;;3.28;;
65799;SDS011;52544;48.116;11.660;2022-07-29T11:44:54;5.00;;;3.13;;
65799;SDS011;52544;48.116;11.660;2022-07-29T11:47:27;3.85;;;3.20;;
65799;SDS011;52544;48.116;11.660;2022-07-29T11:49:57;3.92;;;3.15;;
65799;SDS011;52544;48.116;11.660;2022-07-29T11:52:35;3.78;;;2.95;;
65799;SDS011;52544;48.116;11.660;2022-07-29T11:55:08;6.07;;;3.05;;
65799;SDS011;52544;48.116;11.660;2022-07-29T11:57:35;4.22;;;3.15;;
65799;SDS011;52544;48.116;11.660;2022-07-29T12:00:03;3.40;;;3.10;;
65799;SDS011;52544;48.116;11.660;2022-07-29T12:02:40;4.22;;;3.10;;
65799;SDS011;52544;48.116;11.660;2022-07-29T12:05:08;3.90;;;2.97;;
65799;SDS011;52544;48.116;11.660;2022-07-29T12:07:35;5.95;;;2.72;;
65799;SDS011;52544;48.116;11.660;2022-07-29T12:10:01;3.88;;;2.90;;
65799;SDS011;52544;48.116;11.660;2022-07-29T12:12:28;3.97;;;2.80;;
65799;SDS011;52544;48.116;11.660;2022-07-29T12:14:53;3.90;;;3.10;;
65799;SDS011;52544;48.116;11.660;2022-07-29T12:19:56;4.93;;;2.75;;
65799;SDS011;52544;48.116;11.660;2022-07-29T12:24:55;3.05;;;2.58;;
65799;SDS011;52544;48.116;11.660;2022-07-29T12:27:21;4.90;;;2.80;;
65799;SDS011;52544;48.116;11.660;2022-07-29T12:29:56;3.17;;;2.80;;
65799;SDS011;52544;48.116;11.660;2022-07-29T12:32:23;3.97;;;2.55;;
65799;SDS011;52544;48.116;11.660;2022-07-29T12:34:49;4.03;;;2.65;;
65799;SDS011;52544;48.116;11.660;2022-07-29T12:37:15;4.80;;;3.00;;
65799;SDS011;52544;48.116;11.660;2022-07-29T12:39:41;4.20;;;3.35;;
65799;SDS011;52544;48.116;11.660;2022-07-29T12:42:11;5.03;;;3.00;;
65799;SDS011;52544;48.116;11.660;2022-07-29T12:44:49;3.92;;;2.97;;
65799;SDS011;52544;48.116;11.660;2022-07-29T12:47:15;3.80;;;3.10;;
65799;SDS011;52544;48.116;11.660;2022-07-29T12:49:43;3.40;;;2.90;;
65799;SDS011;52544;48.116;11.660;2022-07-29T12:52:29;4.43;;;3.15;;
65799;SDS011;52544;48.116;11.660;2022-07-29T12:54:56;3.28;;;2.78;;
65799;SDS011;52544;48.116;11.660;2022-07-29T12:57:23;5.85;;;2.97;;
65799;SDS011;52544;48.116;11.660;2022-07-29T12:59:58;4.68;;;2.90;;
65799;SDS011;52544;48.116;11.660;2022-07-29T13:02:44;4.05;;;2.60;;
65799;SDS011;52544;48.116;11.660;2022-07-29T13:05:23;3.95;;;2.95;;
65799;SDS011;52544;48.116;11.660;2022-07-29T13:07:49;4.18;;;2.65;;
65799;SDS011;52544;48.116;11.660;2022-07-29T13:10:16;4.63;;;2.80;;
65799;SDS011;52544;48.116;11.660;2022-07-29T13:15:27;5.97;;;3.00;;
65799;SDS011;52544;48.116;11.660;2022-07-29T13:17:52;3.85;;;3.30;;
65799;SDS011;52544;48.116;11.660;2022-07-29T13:20:18;6.45;;;3.42;;
65799;SDS011;52544;48.116;11.660;2022-07-29T13:22:47;5.30;;;2.90;;
65799;SDS011;52544;48.116;11.660;2022-07-29T13:25:13;4.43;;;3.10;;
65799;SDS011;52544;48.116;11.660;2022-07-29T13:27:38;4.40;;;2.97;;
65799;SDS011;52544;48.116;11.660;2022-07-29T13:30:09;7.22;;;2.88;;
65799;SDS011;52544;48.116;11.660;2022-07-29T13:32:35;3.72;;;2.80;;
65799;SDS011;52544;48.116;11.660;2022-07-29T13:35:04;9.05;;;2.97;;
65799;SDS011;52544;48.116;11.660;2022-07-29T13:37:32;5.63;;;2.63;;
65799;SDS011;52544;48.116;11.660;2022-07-29T13:39:59;4.45;;;2.70;;
65799;SDS011;52544;48.116;11.660;2022-07-29T13:42:27;4.68;;;3.38;;
65799;SDS011;52544;48.116;11.660;2022-07-29T13:44:53;5.38;;;3.40;;
65799;SDS011;52544;48.116;11.660;2022-07-29T13:47:19;3.50;;;3.05;;
65799;SDS011;52544;48.116;11.660;2022-07-29T13:49:49;3.33;;;2.80;;
65799;SDS011;52544;48.116;11.660;2022-07-29T13:52:15;5.40;;;3.00;;
65799;SDS011;52544;48.116;11.660;2022-07-29T13:54:41;8.85;;;3.20;;
65799;SDS011;52544;48.116;11.660;2022-07-29T13:57:08;7.75;;;3.20;;
65799;SDS011;52544;48.116;11.660;2022-07-29T13:59:35;4.72;;;3.30;;
65799;SDS011;52544;48.116;11.660;2022-07-29T14:02:00;6.85;;;3.20;;
65799;SDS011;52544;48.116;11.660;2022-07-29T14:04:26;4.20;;;3.35;;
65799;SDS011;52544;48.116;11.660;2022-07-29T14:06:51;4.60;;;3.30;;
65799;SDS011;52544;48.116;11.660;2022-07-29T14:09:17;6.30;;;3.03;;
65799;SDS011;52544;48.116;11.660;2022-07-29T14:11:43;5.20;;;3.28;;
65799;SDS011;52544;48.116;11.660;2022-07-29T14:14:08;7.85;;;2.90;;
65799;SDS011;52544;48.116;11.660;2022-07-29T14:16:35;3.75;;;3.17;;
65799;SDS011;52544;48.116;11.660;2022-07-29T14:19:01;8.93;;;3.20;;
65799;SDS011;52544;48.116;11.660;2022-07-29T14:21:27;5.43;;;3.10;;
65799;SDS011;52544;48.116;11.660;2022-07-29T14:23:52;5.78;;;3.05;;
65799;SDS011;52544;48.116;11.660;2022-07-29T14:26:19;4.95;;;3.13;;
65799;SDS011;52544;48.116;11.660;2022-07-29T14:28:46;5.35;;;3.50;;
65799;SDS011;52544;48.116;11.660;2022-07-29T14:31:11;4.70;;;3.03;;
65799;SDS011;52544;48.116;11.660;2022-07-29T14:33:37;3.45;;;2.85;;
65799;SDS011;52544;48.116;11.660;2022-07-29T14:36:03;3.45;;;3.00;;
65799;SDS011;52544;48.116;11.660;2022-07-29T14:38:28;4.80;;;3.03;;
65799;SDS011;52544;48.116;11.660;2022-07-29T14:40:54;4.43;;;3.10;;
65799;SDS011;52544;48.116;11.660;2022-07-29T14:43:19;4.70;;;2.97;;
65799;SDS011;52544;48.116;11.660;2022-07-29T14:45:44;5.28;;;3.40;;
65799;SDS011;52544;48.116;11.660;2022-07-29T14:48:10;3.53;;;2.97;;
65799;SDS011;52544;48.116;11.660;2022-07-29T14:50:36;4.55;;;2.80;;
65799;SDS011;52544;48.116;11.660;2022-07-29T14:53:02;3.60;;;2.88;;
65799;SDS011;52544;48.116;11.660;2022-07-29T14:55:28;5.93;;;3.00;;
65799;SDS011;52544;48.116;11.660;2022-07-29T14:57:54;3.30;;;2.45;;
65799;SDS011;52544;48.116;11.660;2022-07-29T15:00:20;2.60;;;2.40;;
65799;SDS011;52544;48.116;11.660;2022-07-29T15:02:46;4.72;;;2.50;;
65799;SDS011;52544;48.116;11.660;2022-07-29T15:05:12;3.33;;;2.72;;
65799;SDS011;52544;48.116;11.660;2022-07-29T15:07:37;4.03;;;2.63;;
65799;SDS011;52544;48.116;11.660;2022-07-29T15:10:03;4.53;;;2.85;;
65799;SDS011;52544;48.116;11.660;2022-07-29T15:12:29;4.63;;;2.55;;
65799;SDS011;52544;48.116;11.660;2022-07-29T15:14:55;6.45;;;2.83;;
65799;SDS011;52544;48.116;11.660;2022-07-29T15:17:21;4.00;;;2.85;;
65799;SDS011;52544;48.116;11.660;2022-07-29T15:19:46;3.95;;;2.72;;
65799;SDS011;52544;48.116;11.660;2022-07-29T15:22:12;4.07;;;2.88;;
65799;SDS011;52544;48.116;11.660;2022-07-29T15:24:37;4.13;;;2.60;;
65799;SDS011;52544;48.116;11.660;2022-07-29T15:27:02;3.03;;;2.30;;
65799;SDS011;52544;48.116;11.660;2022-07-29T15:29:28;5.65;;;2.92;;
65799;SDS011;52544;48.116;11.660;2022-07-29T15:31:53;5.35;;;3.00;;
65799;SDS011;52544;48.116;11.660;2022-07-29T15:34:19;5.32;;;4.30;;
65799;SDS011;52544;48.116;11.660;2022-07-29T15:36:46;4.72;;;2.65;;
65799;SDS011;52544;48.116;11.660;2022-07-29T15:39:11;9.20;;;5.15;;
65799;SDS011;52544;48.116;11.660;2022-07-29T15:41:37;4.60;;;2.88;;
65799;SDS011;52544;48.116;11.660;2022-07-29T15:44:02;5.10;;;2.63;;
65799;SDS011;52544;48.116;11.660;2022-07-29T15:46:28;4.25;;;3.25;;
65799;SDS011;52544;48.116;11.660;2022-07-29T15:49:12;4.57;;;3.58;;